Dragoon, AZ

5:50 AM MST on October 23, 2014 (GMT -0700)
Fort Huachuca | Change Station
CLOSE
Current Station
Airport
Location: Fort Huachuca,
Elevation: 4767 ft
Nearby Weather Stations

Elev 4767 ft 31.61 °N, 110.43 °W | Updated 54 minutes ago

Clear
Clear
58 °F
Feels Like 58 °F
N
5
Wind Variable Wind from ESE

Today
High -- | Low -- °F
--% Chance of Precip.
Yesterday
High -- | Low -- °F
Precip. -- in
6:29 AM 5:38 PM
Waning Crescent, 0% visible
Pressure 29.95 in
Visibility 10.0 miles
Clouds Clear
Dew Point 43 °F
Humidity 58%
Rainfall 0.00 in
Snow Depth Not available.
UV 0 out of 12
Pollen 5.60 out of 12
Air Quality Not available.
Flu Activity Not available.
METAR KALK 231156Z AUTO 11004KT 10SM CLR 14/06 A3019 RMK AO2 SLP141 T01440061 10161 20111 55001 TSNO

More Conditions Fewer Conditions

Pressure 29.95 in
Visibility 10.0 miles
Clouds Clear
Dew Point 43 °F
Humidity 58%
Rainfall 0.00 in
Snow Depth Not available.
UV 0 out of 12
Pollen 5.60 out of 12
Air Quality Not available.
Flu Activity Not available.
METAR KALK 231156Z AUTO 11004KT 10SM CLR 14/06 A3019 RMK AO2 SLP141 T01440061 10161 20111 55001 TSNO

More Conditions Fewer Conditions

10-Day Weather Forecast

Almanac

Astronomy

Oct. 23, 2014 Rise Set
Actual Time 6:29 AM MST 5:38 PM MST
Civil Twilight 6:04 AM MST 6:03 PM MST
Nautical Twilight 5:36 AM MST 6:32 PM MST
Astronomical Twilight 5:07 AM MST 7:00 PM MST
Moon 6:13 AM MST 5:42 PM MST
Length of Visible Light 11h 58m
Length of Day
11h 09m
Tomorrow will be 1m 49s shorter.
Waning Crescent, 0% of the Moon is Illuminated
Today
Waning Crescent
Oct 23
New
Oct 30
First Quarter
Nov 6
Full
Nov 14
Last Quarter

Today's Extremes

State Highs State Lows

Community

WunderPhotos

Upload Photos

1,764,214 photos uploaded!

Nearby

Snow Depth

Station Depth Elevation
Hannagan Meadows 1 in 9020 ft
Wildcat 0 in 7850 ft
Beaver Head 1 in 7990 ft
Coronado Trail 0 in 8400 ft
Workman Creek 0 in 6900 ft

Earthquake Activity

City Distance Mag. Time & Date
No recent earthquake activity has been reported nearby.
Minimum magnitude displayed is 2.5.

Coastal Water Temperatures

Place Temperature
No Stations Reporting

Nearby Weather Stations